sensor_id;sensor_type;location;lat;lon;timestamp;temperature;humidity
35804;DHT22;21924;51.934;7.414;2022-07-29T00:01:06;17.80;99.90
35804;DHT22;21924;51.934;7.414;2022-07-29T00:03:51;17.70;99.90
35804;DHT22;21924;51.934;7.414;2022-07-29T00:06:36;17.70;99.90
35804;DHT22;21924;51.934;7.414;2022-07-29T00:09:20;17.70;99.90
35804;DHT22;21924;51.934;7.414;2022-07-29T00:12:04;17.70;99.90
35804;DHT22;21924;51.934;7.414;2022-07-29T00:14:48;17.70;99.90
35804;DHT22;21924;51.934;7.414;2022-07-29T00:17:32;17.70;99.90
35804;DHT22;21924;51.934;7.414;2022-07-29T00:20:17;17.70;99.90
35804;DHT22;21924;51.934;7.414;2022-07-29T00:23:01;17.60;99.90
35804;DHT22;21924;51.934;7.414;2022-07-29T00:25:46;17.60;99.90
35804;DHT22;21924;51.934;7.414;2022-07-29T00:28:30;17.60;99.90
35804;DHT22;21924;51.934;7.414;2022-07-29T00:31:14;17.50;99.90
35804;DHT22;21924;51.934;7.414;2022-07-29T00:33:58;17.50;99.90
35804;DHT22;21924;51.934;7.414;2022-07-29T00:36:42;17.50;99.90
35804;DHT22;21924;51.934;7.414;2022-07-29T00:39:26;17.50;99.90
35804;DHT22;21924;51.934;7.414;2022-07-29T00:42:10;17.50;99.90
35804;DHT22;21924;51.934;7.414;2022-07-29T00:44:55;17.40;99.90
35804;DHT22;21924;51.934;7.414;2022-07-29T00:47:39;17.50;99.90
35804;DHT22;21924;51.934;7.414;2022-07-29T00:50:23;17.40;99.90
35804;DHT22;21924;51.934;7.414;2022-07-29T00:53:08;17.30;99.90
35804;DHT22;21924;51.934;7.414;2022-07-29T00:55:56;17.40;99.90
35804;DHT22;21924;51.934;7.414;2022-07-29T00:58:40;17.40;99.90
35804;DHT22;21924;51.934;7.414;2022-07-29T01:01:24;17.40;99.90
35804;DHT22;21924;51.934;7.414;2022-07-29T01:04:09;17.40;99.90
35804;DHT22;21924;51.934;7.414;2022-07-29T01:06:53;17.30;99.90
35804;DHT22;21924;51.934;7.414;2022-07-29T01:09:37;17.30;99.90
35804;DHT22;21924;51.934;7.414;2022-07-29T01:12:23;17.30;99.90
35804;DHT22;21924;51.934;7.414;2022-07-29T01:15:08;17.30;99.90
35804;DHT22;21924;51.934;7.414;2022-07-29T01:24:27;17.20;99.90
35804;DHT22;21924;51.934;7.414;2022-07-29T01:29:54;17.10;99.90
35804;DHT22;21924;51.934;7.414;2022-07-29T01:32:39;17.10;99.90
35804;DHT22;21924;51.934;7.414;2022-07-29T01:35:25;17.10;99.90
35804;DHT22;21924;51.934;7.414;2022-07-29T01:38:13;17.00;99.90
35804;DHT22;21924;51.934;7.414;2022-07-29T01:41:10;17.00;99.90
35804;DHT22;21924;51.934;7.414;2022-07-29T01:43:57;17.00;99.90
35804;DHT22;21924;51.934;7.414;2022-07-29T01:46:44;17.00;99.90
35804;DHT22;21924;51.934;7.414;2022-07-29T01:49:31;16.90;99.90
35804;DHT22;21924;51.934;7.414;2022-07-29T01:52:20;16.90;99.90
35804;DHT22;21924;51.934;7.414;2022-07-29T01:55:15;16.90;99.90
35804;DHT22;21924;51.934;7.414;2022-07-29T01:58:00;16.90;99.90
35804;DHT22;21924;51.934;7.414;2022-07-29T02:00:46;16.90;99.90
35804;DHT22;21924;51.934;7.414;2022-07-29T02:03:31;16.90;99.90
35804;DHT22;21924;51.934;7.414;2022-07-29T02:06:19;16.90;99.90
35804;DHT22;21924;51.934;7.414;2022-07-29T02:09:04;16.90;99.90
35804;DHT22;21924;51.934;7.414;2022-07-29T02:11:52;16.90;99.90
35804;DHT22;21924;51.934;7.414;2022-07-29T02:14:38;16.90;99.90
35804;DHT22;21924;51.934;7.414;2022-07-29T02:17:25;16.80;99.90
35804;DHT22;21924;51.934;7.414;2022-07-29T02:20:10;16.80;99.90
35804;DHT22;21924;51.934;7.414;2022-07-29T02:22:55;16.80;99.90
35804;DHT22;21924;51.934;7.414;2022-07-29T02:25:41;16.80;99.90
35804;DHT22;21924;51.934;7.414;2022-07-29T02:28:26;16.80;99.90
35804;DHT22;21924;51.934;7.414;2022-07-29T02:31:11;16.80;99.90
35804;DHT22;21924;51.934;7.414;2022-07-29T02:33:56;16.70;99.90
35804;DHT22;21924;51.934;7.414;2022-07-29T02:36:41;16.70;99.90
35804;DHT22;21924;51.934;7.414;2022-07-29T02:39:26;16.60;99.90
35804;DHT22;21924;51.934;7.414;2022-07-29T02:42:13;16.60;99.90
35804;DHT22;21924;51.934;7.414;2022-07-29T02:44:58;16.60;99.90
35804;DHT22;21924;51.934;7.414;2022-07-29T02:47:43;16.60;99.90
35804;DHT22;21924;51.934;7.414;2022-07-29T02:50:32;16.60;99.90
35804;DHT22;21924;51.934;7.414;2022-07-29T02:53:18;16.60;99.90
35804;DHT22;21924;51.934;7.414;2022-07-29T02:56:06;16.50;99.90
35804;DHT22;21924;51.934;7.414;2022-07-29T02:58:55;16.50;99.90
35804;DHT22;21924;51.934;7.414;2022-07-29T03:01:42;16.50;99.90
35804;DHT22;21924;51.934;7.414;2022-07-29T03:04:27;16.60;99.90
35804;DHT22;21924;51.934;7.414;2022-07-29T03:07:14;16.50;99.90
35804;DHT22;21924;51.934;7.414;2022-07-29T03:09:59;16.50;99.90
35804;DHT22;21924;51.934;7.414;2022-07-29T03:12:43;16.50;99.90
35804;DHT22;21924;51.934;7.414;2022-07-29T03:15:28;16.50;99.90
35804;DHT22;21924;51.934;7.414;2022-07-29T03:18:12;16.50;99.90
35804;DHT22;21924;51.934;7.414;2022-07-29T03:20:56;16.50;99.90
35804;DHT22;21924;51.934;7.414;2022-07-29T03:23:44;16.40;99.90
35804;DHT22;21924;51.934;7.414;2022-07-29T03:26:31;16.50;99.90
35804;DHT22;21924;51.934;7.414;2022-07-29T03:29:15;16.50;99.90
35804;DHT22;21924;51.934;7.414;2022-07-29T03:32:00;16.50;99.90
35804;DHT22;21924;51.934;7.414;2022-07-29T03:34:46;16.50;99.90
35804;DHT22;21924;51.934;7.414;2022-07-29T03:37:29;16.40;99.90
35804;DHT22;21924;51.934;7.414;2022-07-29T03:40:16;16.40;99.90
35804;DHT22;21924;51.934;7.414;2022-07-29T03:43:02;16.40;99.90
35804;DHT22;21924;51.934;7.414;2022-07-29T03:45:47;16.40;99.90
35804;DHT22;21924;51.934;7.414;2022-07-29T03:48:34;16.40;99.90
35804;DHT22;21924;51.934;7.414;2022-07-29T03:51:20;16.50;99.90
35804;DHT22;21924;51.934;7.414;2022-07-29T03:54:03;16.50;99.90
35804;DHT22;21924;51.934;7.414;2022-07-29T03:56:49;16.50;99.90
35804;DHT22;21924;51.934;7.414;2022-07-29T03:59:34;16.50;99.90
35804;DHT22;21924;51.934;7.414;2022-07-29T04:02:19;16.60;99.90
35804;DHT22;21924;51.934;7.414;2022-07-29T04:05:03;16.60;99.90
35804;DHT22;21924;51.934;7.414;2022-07-29T04:07:48;16.60;99.90
35804;DHT22;21924;51.934;7.414;2022-07-29T04:10:32;16.60;99.90
35804;DHT22;21924;51.934;7.414;2022-07-29T04:13:16;16.60;99.90
35804;DHT22;21924;51.934;7.414;2022-07-29T04:16:00;16.70;99.90
35804;DHT22;21924;51.934;7.414;2022-07-29T04:18:44;16.70;99.90
35804;DHT22;21924;51.934;7.414;2022-07-29T04:21:28;16.70;99.90
35804;DHT22;21924;51.934;7.414;2022-07-29T04:24:12;16.70;99.90
35804;DHT22;21924;51.934;7.414;2022-07-29T04:26:57;16.70;99.90
35804;DHT22;21924;51.934;7.414;2022-07-29T04:29:41;16.60;99.90
35804;DHT22;21924;51.934;7.414;2022-07-29T04:32:25;16.70;99.90
35804;DHT22;21924;51.934;7.414;2022-07-29T04:35:09;16.70;99.90
35804;DHT22;21924;51.934;7.414;2022-07-29T04:37:54;16.70;99.90
35804;DHT22;21924;51.934;7.414;2022-07-29T04:40:38;16.70;99.90
35804;DHT22;21924;51.934;7.414;2022-07-29T04:43:22;16.70;99.90
35804;DHT22;21924;51.934;7.414;2022-07-29T04:46:06;16.70;99.90
35804;DHT22;21924;51.934;7.414;2022-07-29T04:48:50;16.80;99.90
35804;DHT22;21924;51.934;7.414;2022-07-29T04:51:34;16.80;99.90
35804;DHT22;21924;51.934;7.414;2022-07-29T04:54:18;16.80;99.90
35804;DHT22;21924;51.934;7.414;2022-07-29T04:57:02;16.80;99.90
35804;DHT22;21924;51.934;7.414;2022-07-29T04:59:46;16.80;99.90
35804;DHT22;21924;51.934;7.414;2022-07-29T05:02:30;16.80;99.90
35804;DHT22;21924;51.934;7.414;2022-07-29T05:05:14;16.80;99.90
35804;DHT22;21924;51.934;7.414;2022-07-29T05:07:58;16.80;99.90
35804;DHT22;21924;51.934;7.414;2022-07-29T05:10:42;16.90;99.90
35804;DHT22;21924;51.934;7.414;2022-07-29T05:13:27;16.90;99.90
35804;DHT22;21924;51.934;7.414;2022-07-29T05:16:12;16.90;99.90
35804;DHT22;21924;51.934;7.414;2022-07-29T05:18:56;16.90;99.90
35804;DHT22;21924;51.934;7.414;2022-07-29T05:21:41;16.90;99.90
35804;DHT22;21924;51.934;7.414;2022-07-29T05:24:25;16.90;99.90
35804;DHT22;21924;51.934;7.414;2022-07-29T05:27:09;17.00;99.90
35804;DHT22;21924;51.934;7.414;2022-07-29T05:29:53;17.00;99.90
35804;DHT22;21924;51.934;7.414;2022-07-29T05:32:37;16.90;99.90
35804;DHT22;21924;51.934;7.414;2022-07-29T05:35:21;16.90;99.90
35804;DHT22;21924;51.934;7.414;2022-07-29T05:38:05;16.90;99.90
35804;DHT22;21924;51.934;7.414;2022-07-29T05:40:49;16.90;99.90
35804;DHT22;21924;51.934;7.414;2022-07-29T05:43:33;16.90;99.90
35804;DHT22;21924;51.934;7.414;2022-07-29T05:46:17;16.90;99.90
35804;DHT22;21924;51.934;7.414;2022-07-29T05:49:01;16.80;99.90
35804;DHT22;21924;51.934;7.414;2022-07-29T05:51:46;16.90;99.90
35804;DHT22;21924;51.934;7.414;2022-07-29T05:54:32;16.90;99.90
35804;DHT22;21924;51.934;7.414;2022-07-29T05:57:17;16.90;99.90
35804;DHT22;21924;51.934;7.414;2022-07-29T06:00:02;16.90;99.90
35804;DHT22;21924;51.934;7.414;2022-07-29T06:02:46;16.90;99.90
35804;DHT22;21924;51.934;7.414;2022-07-29T06:05:30;16.80;99.90
35804;DHT22;21924;51.934;7.414;2022-07-29T06:08:14;16.80;99.90
35804;DHT22;21924;51.934;7.414;2022-07-29T06:11:00;16.80;99.90
35804;DHT22;21924;51.934;7.414;2022-07-29T06:13:44;16.80;99.90
35804;DHT22;21924;51.934;7.414;2022-07-29T06:16:28;16.70;99.90
35804;DHT22;21924;51.934;7.414;2022-07-29T06:19:13;16.70;99.90
35804;DHT22;21924;51.934;7.414;2022-07-29T06:21:57;16.80;99.90
35804;DHT22;21924;51.934;7.414;2022-07-29T06:24:41;16.70;99.90
35804;DHT22;21924;51.934;7.414;2022-07-29T06:27:28;16.80;99.90
35804;DHT22;21924;51.934;7.414;2022-07-29T06:30:12;16.90;99.90
35804;DHT22;21924;51.934;7.414;2022-07-29T06:32:56;16.90;99.90
35804;DHT22;21924;51.934;7.414;2022-07-29T06:35:40;17.00;99.90
35804;DHT22;21924;51.934;7.414;2022-07-29T06:38:25;17.10;99.90
35804;DHT22;21924;51.934;7.414;2022-07-29T06:41:09;17.10;99.90
35804;DHT22;21924;51.934;7.414;2022-07-29T06:43:56;17.10;99.90
35804;DHT22;21924;51.934;7.414;2022-07-29T06:46:40;17.20;99.90
35804;DHT22;21924;51.934;7.414;2022-07-29T06:49:25;17.20;99.90
35804;DHT22;21924;51.934;7.414;2022-07-29T06:52:10;17.20;99.90
35804;DHT22;21924;51.934;7.414;2022-07-29T06:54:54;17.20;99.90
35804;DHT22;21924;51.934;7.414;2022-07-29T06:57:39;17.20;99.90
35804;DHT22;21924;51.934;7.414;2022-07-29T07:00:23;17.10;99.90
35804;DHT22;21924;51.934;7.414;2022-07-29T07:03:07;17.20;99.90
35804;DHT22;21924;51.934;7.414;2022-07-29T07:05:51;17.10;99.90
35804;DHT22;21924;51.934;7.414;2022-07-29T07:08:35;17.20;99.90
35804;DHT22;21924;51.934;7.414;2022-07-29T07:11:19;17.20;99.90
35804;DHT22;21924;51.934;7.414;2022-07-29T07:14:03;17.30;99.90
35804;DHT22;21924;51.934;7.414;2022-07-29T07:16:48;17.20;99.90
35804;DHT22;21924;51.934;7.414;2022-07-29T07:19:32;17.20;99.90
35804;DHT22;21924;51.934;7.414;2022-07-29T07:22:16;17.10;99.90
35804;DHT22;21924;51.934;7.414;2022-07-29T07:25:00;17.10;99.90
35804;DHT22;21924;51.934;7.414;2022-07-29T07:27:44;17.00;99.90
35804;DHT22;21924;51.934;7.414;2022-07-29T07:30:28;16.90;99.90
35804;DHT22;21924;51.934;7.414;2022-07-29T07:33:13;16.90;99.90
35804;DHT22;21924;51.934;7.414;2022-07-29T07:35:58;16.80;99.90
35804;DHT22;21924;51.934;7.414;2022-07-29T07:38:42;16.80;99.90
35804;DHT22;21924;51.934;7.414;2022-07-29T07:41:26;16.80;99.90
35804;DHT22;21924;51.934;7.414;2022-07-29T07:44:10;16.80;99.90
35804;DHT22;21924;51.934;7.414;2022-07-29T07:46:54;16.70;99.90
35804;DHT22;21924;51.934;7.414;2022-07-29T07:49:38;16.70;99.90
35804;DHT22;21924;51.934;7.414;2022-07-29T07:52:22;16.60;99.90
35804;DHT22;21924;51.934;7.414;2022-07-29T07:55:06;16.60;99.90
35804;DHT22;21924;51.934;7.414;2022-07-29T07:57:51;16.50;99.90
35804;DHT22;21924;51.934;7.414;2022-07-29T08:00:35;16.50;99.90
35804;DHT22;21924;51.934;7.414;2022-07-29T08:03:20;16.50;99.90
35804;DHT22;21924;51.934;7.414;2022-07-29T08:06:04;16.50;99.90
35804;DHT22;21924;51.934;7.414;2022-07-29T08:08:48;16.50;99.90
35804;DHT22;21924;51.934;7.414;2022-07-29T08:11:33;16.50;99.90
35804;DHT22;21924;51.934;7.414;2022-07-29T08:14:17;16.60;99.90
35804;DHT22;21924;51.934;7.414;2022-07-29T08:17:01;16.70;99.90
35804;DHT22;21924;51.934;7.414;2022-07-29T08:19:45;16.80;99.90
35804;DHT22;21924;51.934;7.414;2022-07-29T08:22:31;16.80;99.90
35804;DHT22;21924;51.934;7.414;2022-07-29T08:25:16;16.80;99.90
35804;DHT22;21924;51.934;7.414;2022-07-29T08:28:04;16.70;99.90
35804;DHT22;21924;51.934;7.414;2022-07-29T08:30:49;16.50;99.90
35804;DHT22;21924;51.934;7.414;2022-07-29T08:33:33;16.30;99.90
35804;DHT22;21924;51.934;7.414;2022-07-29T08:36:17;16.10;99.90
35804;DHT22;21924;51.934;7.414;2022-07-29T08:39:02;16.00;99.90
35804;DHT22;21924;51.934;7.414;2022-07-29T08:41:46;15.90;99.90
35804;DHT22;21924;51.934;7.414;2022-07-29T08:44:31;15.90;99.90
35804;DHT22;21924;51.934;7.414;2022-07-29T08:47:15;15.80;99.90
35804;DHT22;21924;51.934;7.414;2022-07-29T08:49:59;15.60;99.90
35804;DHT22;21924;51.934;7.414;2022-07-29T08:52:44;15.60;99.90
35804;DHT22;21924;51.934;7.414;2022-07-29T08:55:28;15.50;99.90
35804;DHT22;21924;51.934;7.414;2022-07-29T08:58:13;15.50;99.90
35804;DHT22;21924;51.934;7.414;2022-07-29T09:00:57;15.40;99.90
35804;DHT22;21924;51.934;7.414;2022-07-29T09:03:45;15.40;99.90
35804;DHT22;21924;51.934;7.414;2022-07-29T09:06:31;15.40;99.90
35804;DHT22;21924;51.934;7.414;2022-07-29T09:09:16;15.40;99.90
35804;DHT22;21924;51.934;7.414;2022-07-29T09:12:01;15.30;99.90
35804;DHT22;21924;51.934;7.414;2022-07-29T09:14:45;15.30;99.90
35804;DHT22;21924;51.934;7.414;2022-07-29T09:20:25;15.50;99.90
35804;DHT22;21924;51.934;7.414;2022-07-29T09:23:10;15.60;99.90
35804;DHT22;21924;51.934;7.414;2022-07-29T09:25:54;15.60;99.90
35804;DHT22;21924;51.934;7.414;2022-07-29T09:28:41;15.60;99.90
35804;DHT22;21924;51.934;7.414;2022-07-29T09:31:35;15.60;99.90
35804;DHT22;21924;51.934;7.414;2022-07-29T09:34:26;15.70;99.90
35804;DHT22;21924;51.934;7.414;2022-07-29T09:37:12;15.70;99.90
35804;DHT22;21924;51.934;7.414;2022-07-29T09:40:13;15.80;99.90
35804;DHT22;21924;51.934;7.414;2022-07-29T09:42:57;15.90;99.90
35804;DHT22;21924;51.934;7.414;2022-07-29T09:45:53;16.00;99.90
35804;DHT22;21924;51.934;7.414;2022-07-29T09:48:37;16.20;99.90
35804;DHT22;21924;51.934;7.414;2022-07-29T09:51:21;16.50;99.90
35804;DHT22;21924;51.934;7.414;2022-07-29T09:54:24;16.70;99.90
35804;DHT22;21924;51.934;7.414;2022-07-29T09:57:21;17.00;99.90
35804;DHT22;21924;51.934;7.414;2022-07-29T10:00:06;17.40;99.90
35804;DHT22;21924;51.934;7.414;2022-07-29T10:02:51;17.60;99.90
35804;DHT22;21924;51.934;7.414;2022-07-29T10:05:45;17.70;99.90
35804;DHT22;21924;51.934;7.414;2022-07-29T10:08:30;17.80;99.90
35804;DHT22;21924;51.934;7.414;2022-07-29T10:11:18;17.80;99.90
35804;DHT22;21924;51.934;7.414;2022-07-29T10:14:02;17.70;99.90
35804;DHT22;21924;51.934;7.414;2022-07-29T10:16:47;17.60;99.90
35804;DHT22;21924;51.934;7.414;2022-07-29T10:19:32;17.50;99.90
35804;DHT22;21924;51.934;7.414;2022-07-29T10:22:16;17.40;99.90
35804;DHT22;21924;51.934;7.414;2022-07-29T10:25:01;17.40;99.90
35804;DHT22;21924;51.934;7.414;2022-07-29T10:27:46;17.30;99.90
35804;DHT22;21924;51.934;7.414;2022-07-29T10:30:31;17.20;99.90
35804;DHT22;21924;51.934;7.414;2022-07-29T10:33:28;17.10;99.90
35804;DHT22;21924;51.934;7.414;2022-07-29T10:44:51;17.10;99.90
35804;DHT22;21924;51.934;7.414;2022-07-29T10:47:36;17.10;99.90
35804;DHT22;21924;51.934;7.414;2022-07-29T10:50:20;17.20;99.90
35804;DHT22;21924;51.934;7.414;2022-07-29T10:53:04;17.20;99.90
35804;DHT22;21924;51.934;7.414;2022-07-29T10:55:49;17.30;99.90
35804;DHT22;21924;51.934;7.414;2022-07-29T10:58:34;17.30;99.90
35804;DHT22;21924;51.934;7.414;2022-07-29T11:01:30;17.30;99.90
35804;DHT22;21924;51.934;7.414;2022-07-29T11:04:15;17.20;99.90
35804;DHT22;21924;51.934;7.414;2022-07-29T11:12:50;17.30;99.90
35804;DHT22;21924;51.934;7.414;2022-07-29T11:15:55;17.30;99.90
35804;DHT22;21924;51.934;7.414;2022-07-29T11:21:44;17.30;99.90
35804;DHT22;21924;51.934;7.414;2022-07-29T11:24:31;17.40;99.90
35804;DHT22;21924;51.934;7.414;2022-07-29T11:27:16;17.40;99.90
35804;DHT22;21924;51.934;7.414;2022-07-29T11:30:01;17.30;99.90
35804;DHT22;21924;51.934;7.414;2022-07-29T11:32:47;17.30;99.90
35804;DHT22;21924;51.934;7.414;2022-07-29T11:35:32;17.20;99.90
35804;DHT22;21924;51.934;7.414;2022-07-29T11:38:25;17.20;99.90
35804;DHT22;21924;51.934;7.414;2022-07-29T11:44:04;16.90;99.90
35804;DHT22;21924;51.934;7.414;2022-07-29T11:46:49;16.80;99.90
35804;DHT22;21924;51.934;7.414;2022-07-29T11:49:34;16.80;99.90
35804;DHT22;21924;51.934;7.414;2022-07-29T11:52:18;16.80;99.90
35804;DHT22;21924;51.934;7.414;2022-07-29T11:55:03;16.90;99.90
35804;DHT22;21924;51.934;7.414;2022-07-29T11:57:52;16.90;99.90
35804;DHT22;21924;51.934;7.414;2022-07-29T12:00:37;16.90;99.90
35804;DHT22;21924;51.934;7.414;2022-07-29T12:03:24;17.10;99.90
35804;DHT22;21924;51.934;7.414;2022-07-29T12:06:12;17.30;99.90
35804;DHT22;21924;51.934;7.414;2022-07-29T12:08:57;17.40;99.90
35804;DHT22;21924;51.934;7.414;2022-07-29T12:11:41;17.50;99.90
35804;DHT22;21924;51.934;7.414;2022-07-29T12:14:26;17.50;99.90
35804;DHT22;21924;51.934;7.414;2022-07-29T12:17:25;17.50;99.90
35804;DHT22;21924;51.934;7.414;2022-07-29T12:20:09;17.50;99.90
35804;DHT22;21924;51.934;7.414;2022-07-29T12:22:54;17.60;99.90
35804;DHT22;21924;51.934;7.414;2022-07-29T12:25:39;17.60;99.90
35804;DHT22;21924;51.934;7.414;2022-07-29T12:28:23;17.70;99.90
35804;DHT22;21924;51.934;7.414;2022-07-29T12:31:12;17.70;99.90
35804;DHT22;21924;51.934;7.414;2022-07-29T12:33:57;18.00;99.90
35804;DHT22;21924;51.934;7.414;2022-07-29T12:36:41;18.20;99.90
35804;DHT22;21924;51.934;7.414;2022-07-29T12:39:26;18.40;99.90
35804;DHT22;21924;51.934;7.414;2022-07-29T12:42:12;18.70;99.90
35804;DHT22;21924;51.934;7.414;2022-07-29T12:44:56;19.00;99.90
35804;DHT22;21924;51.934;7.414;2022-07-29T12:47:52;19.10;99.90
35804;DHT22;21924;51.934;7.414;2022-07-29T12:50:53;19.10;99.90
35804;DHT22;21924;51.934;7.414;2022-07-29T12:53:37;19.20;99.90
35804;DHT22;21924;51.934;7.414;2022-07-29T12:56:22;19.30;99.90
35804;DHT22;21924;51.934;7.414;2022-07-29T12:59:19;19.40;99.90
35804;DHT22;21924;51.934;7.414;2022-07-29T13:02:04;19.40;99.90
35804;DHT22;21924;51.934;7.414;2022-07-29T13:04:57;19.80;99.90
35804;DHT22;21924;51.934;7.414;2022-07-29T13:07:41;20.20;99.90
35804;DHT22;21924;51.934;7.414;2022-07-29T13:10:25;20.60;99.90
35804;DHT22;21924;51.934;7.414;2022-07-29T13:13:10;21.10;99.90
35804;DHT22;21924;51.934;7.414;2022-07-29T13:16:07;21.60;99.90
35804;DHT22;21924;51.934;7.414;2022-07-29T13:19:08;22.30;99.90
35804;DHT22;21924;51.934;7.414;2022-07-29T13:21:52;23.00;99.90
35804;DHT22;21924;51.934;7.414;2022-07-29T13:24:46;23.20;99.90
35804;DHT22;21924;51.934;7.414;2022-07-29T13:27:31;23.40;99.90
35804;DHT22;21924;51.934;7.414;2022-07-29T13:30:16;23.80;99.90
35804;DHT22;21924;51.934;7.414;2022-07-29T13:33:00;23.90;99.90
35804;DHT22;21924;51.934;7.414;2022-07-29T13:35:44;24.30;99.90
35804;DHT22;21924;51.934;7.414;2022-07-29T13:38:29;24.60;99.90
35804;DHT22;21924;51.934;7.414;2022-07-29T13:41:13;24.80;99.90
35804;DHT22;21924;51.934;7.414;2022-07-29T13:43:57;24.80;99.90
35804;DHT22;21924;51.934;7.414;2022-07-29T13:46:41;25.00;99.90
35804;DHT22;21924;51.934;7.414;2022-07-29T13:49:25;25.10;99.90
35804;DHT22;21924;51.934;7.414;2022-07-29T13:52:09;25.40;99.90
35804;DHT22;21924;51.934;7.414;2022-07-29T13:54:53;25.70;99.90
35804;DHT22;21924;51.934;7.414;2022-07-29T13:57:37;25.80;99.90
35804;DHT22;21924;51.934;7.414;2022-07-29T14:00:21;25.80;99.90
35804;DHT22;21924;51.934;7.414;2022-07-29T14:03:07;25.90;99.90
35804;DHT22;21924;51.934;7.414;2022-07-29T14:05:51;25.30;99.90
35804;DHT22;21924;51.934;7.414;2022-07-29T14:08:35;24.80;99.90
35804;DHT22;21924;51.934;7.414;2022-07-29T14:11:19;24.50;99.90
35804;DHT22;21924;51.934;7.414;2022-07-29T14:14:04;24.00;99.90
35804;DHT22;21924;51.934;7.414;2022-07-29T14:16:48;23.70;99.90
35804;DHT22;21924;51.934;7.414;2022-07-29T14:19:32;23.30;99.90
35804;DHT22;21924;51.934;7.414;2022-07-29T14:22:19;23.00;99.90
35804;DHT22;21924;51.934;7.414;2022-07-29T14:25:03;22.70;99.90
35804;DHT22;21924;51.934;7.414;2022-07-29T14:27:47;22.60;99.90
35804;DHT22;21924;51.934;7.414;2022-07-29T14:30:31;22.40;99.90
35804;DHT22;21924;51.934;7.414;2022-07-29T14:33:15;22.40;99.90
35804;DHT22;21924;51.934;7.414;2022-07-29T14:35:59;22.40;99.90
35804;DHT22;21924;51.934;7.414;2022-07-29T14:38:43;22.50;99.90
35804;DHT22;21924;51.934;7.414;2022-07-29T14:41:27;22.70;99.90
35804;DHT22;21924;51.934;7.414;2022-07-29T14:44:12;23.10;99.90
35804;DHT22;21924;51.934;7.414;2022-07-29T14:46:57;22.90;99.90
35804;DHT22;21924;51.934;7.414;2022-07-29T14:49:42;23.10;99.90
35804;DHT22;21924;51.934;7.414;2022-07-29T14:52:25;22.90;99.90
35804;DHT22;21924;51.934;7.414;2022-07-29T14:55:10;22.90;99.90
35804;DHT22;21924;51.934;7.414;2022-07-29T14:57:54;23.00;99.90
35804;DHT22;21924;51.934;7.414;2022-07-29T15:00:38;23.00;99.90
35804;DHT22;21924;51.934;7.414;2022-07-29T15:03:23;23.20;99.90
35804;DHT22;21924;51.934;7.414;2022-07-29T15:06:07;23.80;99.90
35804;DHT22;21924;51.934;7.414;2022-07-29T15:08:51;24.80;99.90
35804;DHT22;21924;51.934;7.414;2022-07-29T15:11:35;25.80;99.90
35804;DHT22;21924;51.934;7.414;2022-07-29T15:14:19;26.30;99.90
35804;DHT22;21924;51.934;7.414;2022-07-29T15:17:03;26.40;99.90
35804;DHT22;21924;51.934;7.414;2022-07-29T15:19:48;26.40;99.90
35804;DHT22;21924;51.934;7.414;2022-07-29T15:22:32;26.40;99.90
35804;DHT22;21924;51.934;7.414;2022-07-29T15:25:16;26.50;99.90
35804;DHT22;21924;51.934;7.414;2022-07-29T15:28:00;26.20;99.90
35804;DHT22;21924;51.934;7.414;2022-07-29T15:30:46;25.80;99.90
35804;DHT22;21924;51.934;7.414;2022-07-29T15:33:30;25.30;99.90
35804;DHT22;21924;51.934;7.414;2022-07-29T15:36:14;25.00;99.90
35804;DHT22;21924;51.934;7.414;2022-07-29T15:38:59;24.80;99.90
35804;DHT22;21924;51.934;7.414;2022-07-29T15:41:43;24.60;99.90
35804;DHT22;21924;51.934;7.414;2022-07-29T15:44:27;24.40;99.90
35804;DHT22;21924;51.934;7.414;2022-07-29T15:47:11;24.10;99.90
35804;DHT22;21924;51.934;7.414;2022-07-29T15:49:55;23.90;99.90
35804;DHT22;21924;51.934;7.414;2022-07-29T15:52:39;23.80;99.90
35804;DHT22;21924;51.934;7.414;2022-07-29T15:55:23;23.80;99.90
35804;DHT22;21924;51.934;7.414;2022-07-29T15:58:07;23.60;99.90
35804;DHT22;21924;51.934;7.414;2022-07-29T16:00:51;23.40;99.90
35804;DHT22;21924;51.934;7.414;2022-07-29T16:03:35;23.30;99.90
35804;DHT22;21924;51.934;7.414;2022-07-29T16:06:19;23.40;99.90
35804;DHT22;21924;51.934;7.414;2022-07-29T16:09:03;23.50;99.90
35804;DHT22;21924;51.934;7.414;2022-07-29T16:11:47;23.60;99.90
35804;DHT22;21924;51.934;7.414;2022-07-29T16:14:33;23.60;99.90
35804;DHT22;21924;51.934;7.414;2022-07-29T16:17:18;23.70;99.90
35804;DHT22;21924;51.934;7.414;2022-07-29T16:20:03;23.50;99.90
35804;DHT22;21924;51.934;7.414;2022-07-29T16:22:47;23.40;99.90
35804;DHT22;21924;51.934;7.414;2022-07-29T16:25:31;23.40;99.90
35804;DHT22;21924;51.934;7.414;2022-07-29T16:28:16;23.40;99.90
35804;DHT22;21924;51.934;7.414;2022-07-29T16:31:00;23.10;99.90
35804;DHT22;21924;51.934;7.414;2022-07-29T16:33:45;23.10;99.90
35804;DHT22;21924;51.934;7.414;2022-07-29T16:36:29;23.20;99.90
35804;DHT22;21924;51.934;7.414;2022-07-29T16:39:13;23.20;99.90
35804;DHT22;21924;51.934;7.414;2022-07-29T16:41:57;23.20;99.90
35804;DHT22;21924;51.934;7.414;2022-07-29T16:44:41;23.20;99.90
35804;DHT22;21924;51.934;7.414;2022-07-29T16:47:25;23.30;99.90
35804;DHT22;21924;51.934;7.414;2022-07-29T16:50:09;23.10;99.90
35804;DHT22;21924;51.934;7.414;2022-07-29T16:52:54;23.20;99.90
35804;DHT22;21924;51.934;7.414;2022-07-29T16:55:38;23.10;99.90
35804;DHT22;21924;51.934;7.414;2022-07-29T16:58:22;23.00;99.90
35804;DHT22;21924;51.934;7.414;2022-07-29T17:01:06;22.90;99.90
35804;DHT22;21924;51.934;7.414;2022-07-29T17:03:50;23.10;99.90
35804;DHT22;21924;51.934;7.414;2022-07-29T17:06:50;23.10;99.90
35804;DHT22;21924;51.934;7.414;2022-07-29T17:09:34;23.10;99.90
35804;DHT22;21924;51.934;7.414;2022-07-29T17:12:18;23.10;99.90
35804;DHT22;21924;51.934;7.414;2022-07-29T17:15:06;23.00;99.90
35804;DHT22;21924;51.934;7.414;2022-07-29T17:17:50;22.90;99.90
35804;DHT22;21924;51.934;7.414;2022-07-29T17:20:34;22.80;99.90
35804;DHT22;21924;51.934;7.414;2022-07-29T17:23:19;22.80;99.90
35804;DHT22;21924;51.934;7.414;2022-07-29T17:26:03;22.70;99.90
35804;DHT22;21924;51.934;7.414;2022-07-29T17:28:47;22.70;99.90
35804;DHT22;21924;51.934;7.414;2022-07-29T17:31:31;22.70;99.90
35804;DHT22;21924;51.934;7.414;2022-07-29T17:34:15;22.70;99.90
35804;DHT22;21924;51.934;7.414;2022-07-29T17:37:00;22.80;99.90
35804;DHT22;21924;51.934;7.414;2022-07-29T17:39:44;22.80;99.90
35804;DHT22;21924;51.934;7.414;2022-07-29T17:42:28;22.90;99.90
35804;DHT22;21924;51.934;7.414;2022-07-29T17:45:12;22.90;99.90
35804;DHT22;21924;51.934;7.414;2022-07-29T17:47:56;22.90;99.90
35804;DHT22;21924;51.934;7.414;2022-07-29T17:50:40;22.80;99.90
35804;DHT22;21924;51.934;7.414;2022-07-29T17:53:24;22.80;99.90
35804;DHT22;21924;51.934;7.414;2022-07-29T17:56:08;22.80;99.90